Clarkridge, Arkansas
Current Conditions -  °F | °C
As of 11:53 PM on Tuesday 25 Nov 2014 (Local Time) from KBPK Reporting Station
Clear Clear  
Wind Chill: 35°   Ceiling: Unl
Heat Index: 35°   Visibility: 10mi
Dew Point: 18°   Wind: 3mph
Humidity: 50%   Direction: 150°SSE
Pressure: 30.11"   Gusts: NA
Location:  36.48°N, 92.35°W
Report Text: KBPK 260553Z AUTO 15003KT 10SM CLR 02/M08 A3011 RMK AO2 SLP202 T00171078 10039 21006 400831006 58012
Loading
Personal Weather Stations






























Interactive Weather Map New forecast layout! Learn more

10-Day Weather Forecast

Advertisements
Track Severe Weather on mobile